Terminal Aerodrome Forecast
Issued by NWS

Home | Current Version | Previous Version | Text Only | Print | Product List | Glossary Off
Versions: 1 2 3 4 5 6 7 8 9 10 11 12 13 14 15

000
FTUS43 KIWX 011741
TAFSBN
TAF
KSBN 011741Z 0118/0218 30009KT P6SM SCT060 BKN150
     FM020000 21004KT P6SM VCSH BKN060
     FM020500 20005KT P6SM SCT120
     FM021400 23013G20KT P6SM BKN200=

USA.gov is the U.S. government's official web portal to all federal, state and local government web resources and services.